Uvalde Research's Hourly Summary for Wednesday, July 4, 2018
Hour Temp
(f)
RH
(%)
Solar Rad.
(MJ/m2)
Rainfall
(in)
Wind
(mph)
7/4/2018 12:00 AM 84 61 0 0 2.34
7/4/2018 1:00 AM 82 73 0 0 2.75
7/4/2018 2:00 AM 80 81 0 0 2.38
7/4/2018 3:00 AM 78 85 0 0 0.82
7/4/2018 4:00 AM 77 88 0 0 0.64
7/4/2018 5:00 AM 75 91 0 0 1.69
7/4/2018 6:00 AM 74 92 0.01 0 2.14
7/4/2018 7:00 AM 74 93 0.23 0 1.58
7/4/2018 8:00 AM 78 86 0.89 0 1.08
7/4/2018 9:00 AM 82 74 1.54 0 1.7
7/4/2018 10:00 AM 86 59 2.12 0 1.89
7/4/2018 11:00 AM 88 53 2.58 0 2
7/4/2018 12:00 PM 91 46 2.86 0 1.99
7/4/2018 1:00 PM 94 41 2.97 0 2.54
7/4/2018 2:00 PM 96 34 2.91 0 2.42
7/4/2018 3:00 PM 98 30 2.39 0 2.22
7/4/2018 4:00 PM 100 27 2.1 0 1.97
7/4/2018 5:00 PM 100 24 1.7 0 2.36
7/4/2018 6:00 PM 84 66 0.12 0.04 6.85
7/4/2018 7:00 PM 74 91 0.02 0.1 4.7
7/4/2018 8:00 PM 74 95 0.02 0.01 2.25
7/4/2018 9:00 PM 74 95 0 0 3.44
7/4/2018 10:00 PM 74 96 0 0 3.28
7/4/2018 11:00 PM 74 96 0 0 2.29
Data Summary 82 69 22.46 0.15 2.39